ESSP

Norrköping Airport

Norrköping, Sweden
METAR ESSP 152020Z AUTO 12005KT 9999 NCD 22/14 Q1014
Observed Flight Rules
Jul-15 @ 20:20 UTC (38 minutes ago) Visual Flight Rules
Wind Visibility Clouds
120° at 5 knots 10,000+ meters
  • Clear skies
Temperatures Readings
Current 22°C / 72°F
Dewpoint 14°C / 57°F
Humidity 61%
Altimeter 29.94" Hg
Pressure 1014 hPa
Elevation 8
METAR ESSP 152020Z AUTO 12005KT 9999 NCD 22/14 Q1014
Observed Flight Rules
Jul-15 @ 20:20 UTC
(38 minutes ago)
VFR
Wind Visibility
120° at 5 knots 10,000+ meters
Clouds
  • Clear skies
Temperature Dewpoint
22°C / 72°F 14°C / 57°F
Humidity Altimeter Pressure
61% 29.94" Hg 1014 hPa